Time;durP1;ratioP1;P1;durP2;ratioP2;P2;SDS_P1;SDS_P2;PMS_P1;PMS_P2;Temp;Humidity;BMP_temperature;BMP_pressure;BME280_temperature;BME280_humidity;BME280_pressure;Samples;Min_cycle;Max_cycle;Signal;HPM_P1;HPM_P2
2022/03/24 00:01:01;;;;;;;119.95;58.90;;;;;;;3.34;72.92;99978.72;2081167;28;20191;-72
2022/03/24 00:02:03;;;;;;;121.18;57.67;;;;;;;3.35;73.00;99982.97;2082345;28;20284;-72
2022/03/24 00:03:06;;;;;;;122.88;59.08;;;;;;;3.40;72.49;99983.09;2082612;28;20660;-72
2022/03/24 00:04:08;;;;;;;117.63;56.10;;;;;;;3.42;73.50;99977.59;2081586;28;20666;-72
2022/03/24 00:05:11;;;;;;;124.07;57.35;;;;;;;3.48;73.10;99973.25;2081757;28;20187;-72
2022/03/24 00:06:12;;;;;;;127.95;56.83;;;;;;;3.49;72.53;99980.94;2081977;28;20277;-72
2022/03/24 00:07:14;;;;;;;118.57;58.08;;;;;;;3.50;72.17;99979.09;2081668;28;20204;-72
2022/03/24 00:08:17;;;;;;;126.57;57.20;;;;;;;3.53;71.71;99989.19;2081877;28;20289;-72
2022/03/24 00:09:19;;;;;;;137.60;58.72;;;;;;;3.51;70.91;99973.59;2082546;28;20244;-72
2022/03/24 00:10:23;;;;;;;120.10;57.33;;;;;;;3.57;70.63;99979.81;2081975;28;20200;-72
2022/03/24 00:11:25;;;;;;;116.13;54.53;;;;;;;3.60;70.21;99982.78;2082273;28;20225;-72
2022/03/24 00:12:27;;;;;;;137.60;58.55;;;;;;;3.57;70.04;99979.81;2081780;28;20196;-72
2022/03/24 00:13:30;;;;;;;110.22;53.13;;;;;;;3.51;69.53;99984.16;2081703;28;20208;-72
2022/03/24 00:14:35;;;;;;;121.47;56.03;;;;;;;3.48;70.60;99976.72;2081971;28;20211;-72
2022/03/24 00:15:37;;;;;;;118.07;53.63;;;;;;;3.47;70.55;99974.25;2081754;28;20187;-72
2022/03/24 00:16:40;;;;;;;123.57;55.15;;;;;;;3.38;71.57;99974.59;2081728;28;20307;-72
2022/03/24 00:17:44;;;;;;;112.60;51.40;;;;;;;3.34;73.57;99970.81;2073873;28;20230;-73
2022/03/24 00:18:46;;;;;;;116.93;53.63;;;;;;;3.25;74.46;99958.97;2081618;28;20227;-72
2022/03/24 00:19:48;;;;;;;115.35;52.28;;;;;;;3.19;74.93;99951.16;2082279;28;20231;-72
2022/03/24 00:20:49;;;;;;;116.10;54.25;;;;;;;3.09;74.76;99954.34;2081036;28;20207;-71
2022/03/24 00:21:52;;;;;;;122.85;55.55;;;;;;;3.05;74.83;99955.84;2081985;28;20622;-72
2022/03/24 00:22:53;;;;;;;124.82;53.58;;;;;;;2.97;75.08;99950.88;2081810;28;20314;-72
2022/03/24 00:23:57;;;;;;;113.47;53.17;;;;;;;2.91;75.63;99954.41;2081611;28;20214;-72
2022/03/24 00:24:58;;;;;;;121.88;56.03;;;;;;;2.86;76.54;99954.25;2082194;28;20199;-73
2022/03/24 00:26:01;;;;;;;114.85;52.17;;;;;;;2.77;76.73;99938.75;2082256;28;20266;-72
2022/03/24 00:27:04;;;;;;;109.43;52.58;;;;;;;2.72;77.42;99938.63;2081815;28;20564;-72
2022/03/24 00:28:07;;;;;;;123.68;57.05;;;;;;;2.69;77.12;99941.69;2081555;28;20195;-72
2022/03/24 00:29:09;;;;;;;123.72;57.25;;;;;;;2.65;77.55;99945.81;2081791;28;20196;-72
2022/03/24 00:30:13;;;;;;;118.45;55.30;;;;;;;2.64;77.58;99941.56;2082181;28;20614;-72
2022/03/24 00:31:15;;;;;;;131.20;57.28;;;;;;;2.62;78.11;99940.19;2081460;28;20207;-73
2022/03/24 00:32:22;;;;;;;123.30;55.65;;;;;;;2.61;78.04;99944.66;2073388;28;20725;-72
2022/03/24 00:33:23;;;;;;;118.60;55.50;;;;;;;2.56;79.69;99936.59;2074277;28;20196;-72
2022/03/24 00:34:26;;;;;;;123.53;56.72;;;;;;;2.59;80.40;99938.78;2073473;28;20188;-72
2022/03/24 00:35:28;;;;;;;108.55;53.15;;;;;;;2.57;81.26;99937.41;2081756;28;20204;-73
2022/03/24 00:36:29;;;;;;;106.90;51.63;;;;;;;2.53;82.79;99942.31;2072968;28;20588;-72
2022/03/24 00:37:32;;;;;;;113.28;51.92;;;;;;;2.49;83.47;99939.31;2073692;28;20283;-72
2022/03/24 00:38:34;;;;;;;111.28;55.58;;;;;;;2.46;84.90;99939.78;2081688;28;20566;-73
2022/03/24 00:39:37;;;;;;;117.47;54.30;;;;;;;2.43;85.45;99936.75;2082157;28;20272;-73
2022/03/24 00:40:38;;;;;;;115.82;56.72;;;;;;;2.39;85.13;99932.97;2081440;28;20657;-73
2022/03/24 00:41:42;;;;;;;122.85;56.25;;;;;;;2.38;85.75;99934.78;2081497;28;20674;-73
2022/03/24 00:42:45;;;;;;;136.20;61.67;;;;;;;2.42;85.50;99945.69;2081876;28;20722;-72
2022/03/24 00:43:48;;;;;;;119.00;57.60;;;;;;;2.43;85.48;99936.75;2081564;28;20237;-73
2022/03/24 00:44:51;;;;;;;134.93;60.15;;;;;;;2.43;85.30;99937.59;2081444;28;20630;-73
2022/03/24 00:45:52;;;;;;;102.60;52.33;;;;;;;2.42;84.92;99949.13;2073715;28;20200;-73
2022/03/24 00:46:55;;;;;;;114.38;52.30;;;;;;;2.38;85.64;99947.97;2081525;28;20709;-73
2022/03/24 00:48:00;;;;;;;110.55;51.58;;;;;;;2.33;86.20;99937.28;2081747;28;20199;-72
2022/03/24 00:49:04;;;;;;;117.50;54.53;;;;;;;2.25;86.82;99941.00;2073917;28;20226;-73
2022/03/24 00:50:07;;;;;;;105.47;50.53;;;;;;;2.20;87.17;99940.06;2081577;28;20187;-72
2022/03/24 00:51:09;;;;;;;103.53;50.78;;;;;;;2.13;87.86;99940.13;2081415;28;20694;-72
2022/03/24 00:52:12;;;;;;;125.32;53.40;;;;;;;2.08;88.52;99939.97;2081375;28;20230;-72
2022/03/24 00:53:14;;;;;;;106.05;50.28;;;;;;;2.03;89.15;99942.47;2081389;28;20210;-73
2022/03/24 00:54:18;;;;;;;116.18;51.63;;;;;;;1.99;90.25;99946.56;2081271;28;20250;-73
2022/03/24 00:55:20;;;;;;;102.57;49.88;;;;;;;1.92;91.08;99945.84;2081366;28;20696;-73
2022/03/24 00:56:23;;;;;;;112.07;53.17;;;;;;;1.88;92.80;99939.38;2073729;28;20204;-72
2022/03/24 00:57:25;;;;;;;105.25;51.15;;;;;;;1.89;93.90;99941.78;2073425;28;20750;-73
2022/03/24 00:58:28;;;;;;;125.88;54.03;;;;;;;1.84;93.91;99940.84;2081514;28;20191;-73
2022/03/24 00:59:29;;;;;;;110.65;52.50;;;;;;;1.82;94.51;99941.03;2081330;28;20234;-73
2022/03/24 01:00:32;;;;;;;112.43;52.85;;;;;;;1.80;94.72;99939.66;2073635;28;20196;-72
2022/03/24 01:01:34;;;;;;;119.72;54.03;;;;;;;1.79;97.18;99946.75;2081502;28;20248;-73
2022/03/24 01:02:39;;;;;;;120.55;58.22;;;;;;;1.81;97.82;99938.63;2082225;28;20202;-73
2022/03/24 01:03:43;;;;;;;129.02;56.65;;;;;;;1.82;98.41;99946.31;2081706;28;20637;-73
2022/03/24 01:04:46;;;;;;;137.35;61.33;;;;;;;1.83;98.50;99942.69;2081528;28;20249;-73
2022/03/24 01:05:48;;;;;;;138.43;61.05;;;;;;;1.86;98.12;99946.69;2081550;28;20250;-72
2022/03/24 01:06:53;;;;;;;135.73;60.72;;;;;;;1.92;96.65;99941.38;2081695;28;20278;-72
2022/03/24 01:07:55;;;;;;;123.72;59.25;;;;;;;1.99;94.99;99952.63;2081472;28;20199;-73
2022/03/24 01:08:59;;;;;;;138.05;62.80;;;;;;;2.03;94.11;99950.38;2081659;28;20630;-73
2022/03/24 01:10:00;;;;;;;118.03;54.60;;;;;;;2.05;93.16;99955.41;2081512;28;20198;-73
2022/03/24 01:11:05;;;;;;;112.27;54.83;;;;;;;2.03;93.55;99952.19;2081405;28;20198;-73
2022/03/24 01:12:07;;;;;;;115.35;55.22;;;;;;;1.99;93.58;99952.63;2074569;28;20227;-73
2022/03/24 01:13:11;;;;;;;122.05;57.08;;;;;;;1.95;94.08;99953.28;2075478;28;20219;-73
2022/03/24 01:14:16;;;;;;;115.07;54.60;;;;;;;1.89;94.59;99948.88;2083374;28;20187;-73
2022/03/24 01:15:19;;;;;;;125.82;55.50;;;;;;;1.85;95.09;99947.72;2083185;28;20211;-73
2022/03/24 01:16:23;;;;;;;130.10;59.72;;;;;;;1.81;95.62;99938.63;2075241;28;20200;-72
2022/03/24 01:17:26;;;;;;;125.72;54.85;;;;;;;1.75;96.31;99944.78;2083364;28;20674;-73
2022/03/24 01:18:29;;;;;;;121.70;55.95;;;;;;;1.70;96.64;99943.59;2083011;28;20188;-73
2022/03/24 01:19:32;;;;;;;114.95;54.08;;;;;;;1.65;97.54;99938.19;2083177;28;20279;-72
2022/03/24 01:20:35;;;;;;;123.53;56.53;;;;;;;1.63;98.37;99940.19;2083312;28;20218;-72
2022/03/24 01:21:38;;;;;;;117.53;55.47;;;;;;;1.59;98.65;99933.78;2082726;28;20230;-73
2022/03/24 01:22:40;;;;;;;121.32;55.95;;;;;;;1.55;99.48;99935.22;2083137;28;20254;-73
2022/03/24 01:23:42;;;;;;;125.05;56.30;;;;;;;1.49;99.74;99927.41;2074915;28;20246;-72
2022/03/24 01:24:43;;;;;;;126.22;59.47;;;;;;;1.45;99.97;99929.63;2083267;28;20278;-73
2022/03/24 01:25:48;;;;;;;135.43;59.80;;;;;;;1.44;100.00;99930.66;2082917;28;20654;-73
2022/03/24 01:26:53;;;;;;;137.45;60.20;;;;;;;1.47;100.00;99927.59;2083130;28;20207;-73
2022/03/24 01:27:54;;;;;;;128.50;59.22;;;;;;;1.46;100.00;99933.06;2075152;28;20200;-72
2022/03/24 01:28:58;;;;;;;129.70;59.40;;;;;;;1.41;100.00;99928.47;2074883;28;20617;-73
2022/03/24 01:30:01;;;;;;;124.07;58.63;;;;;;;1.39;100.00;99931.31;2083168;28;20701;-72
2022/03/24 01:31:03;;;;;;;133.07;60.50;;;;;;;1.38;100.00;99926.25;2074907;28;20208;-72
2022/03/24 01:32:06;;;;;;;130.18;59.83;;;;;;;1.38;100.00;99927.06;2082975;28;20252;-73
2022/03/24 01:33:09;;;;;;;130.15;61.45;;;;;;;1.37;100.00;99929.91;2083044;28;20215;-73
2022/03/24 01:34:11;;;;;;;145.68;61.33;;;;;;;1.40;100.00;99930.28;2075159;28;20238;-73
2022/03/24 01:35:16;;;;;;;137.70;61.67;;;;;;;1.40;100.00;99922.41;2082929;28;20196;-72
2022/03/24 01:36:18;;;;;;;129.35;60.72;;;;;;;1.40;100.00;99922.41;2082385;28;20317;-73
2022/03/24 01:37:22;;;;;;;125.15;56.08;;;;;;;1.43;100.00;99926.44;2074695;28;20216;-72
2022/03/24 01:38:27;;;;;;;130.73;58.65;;;;;;;1.40;100.00;99930.28;2082960;28;20191;-74
2022/03/24 01:39:29;;;;;;;129.90;60.53;;;;;;;1.38;100.00;99923.63;2083678;28;20195;-73
2022/03/24 01:40:32;;;;;;;130.68;61.33;;;;;;;1.40;100.00;99925.03;2083400;28;20208;-73
2022/03/24 01:41:33;;;;;;;132.90;61.83;;;;;;;1.41;100.00;99925.84;2074824;28;20211;-71
2022/03/24 01:42:37;;;;;;;127.43;60.42;;;;;;;1.39;100.00;99925.22;2082721;28;20214;-72
2022/03/24 01:43:42;;;;;;;127.32;57.90;;;;;;;1.41;100.00;99933.72;2075099;28;20215;-72
2022/03/24 01:44:46;;;;;;;137.45;62.33;;;;;;;1.38;100.00;99928.88;2083131;28;20176;-72
2022/03/24 01:45:49;;;;;;;136.27;61.80;;;;;;;1.47;100.00;99926.78;2083492;28;20187;-71
2022/03/24 01:46:56;;;;;;;130.88;61.58;;;;;;;1.51;100.00;99923.53;2083498;28;20195;-72
2022/03/24 01:47:59;;;;;;;130.13;60.58;;;;;;;1.53;100.00;99937.25;2082647;28;20247;-72
2022/03/24 01:49:01;;;;;;;124.45;57.47;;;;;;;1.54;100.00;99938.88;2082848;28;20212;-72
2022/03/24 01:50:06;;;;;;;122.88;60.10;;;;;;;1.55;100.00;99937.84;2083527;28;20199;-71
2022/03/24 01:51:14;;;;;;;130.38;58.80;;;;;;;1.56;100.00;99934.19;2081951;28;20219;-72
2022/03/24 01:52:18;;;;;;;126.78;59.47;;;;;;;1.56;100.00;99930.75;2075838;28;20552;-72
2022/03/24 01:53:20;;;;;;;132.80;59.85;;;;;;;1.56;100.00;99936.81;2082647;28;20196;-72
2022/03/24 01:54:22;;;;;;;132.63;58.97;;;;;;;1.58;100.00;99934.81;2074577;28;20196;-72
2022/03/24 01:55:28;;;;;;;126.55;60.28;;;;;;;1.57;100.00;99938.47;2075155;28;20196;-72
2022/03/24 01:56:30;;;;;;;122.55;59.65;;;;;;;1.57;100.00;99943.72;2082955;28;20210;-71
2022/03/24 01:57:33;;;;;;;124.00;58.97;;;;;;;1.54;100.00;99936.25;2074757;28;20576;-72
2022/03/24 01:58:37;;;;;;;134.98;60.22;;;;;;;1.53;100.00;99937.25;2074928;28;20215;-72
2022/03/24 01:59:42;;;;;;;133.70;59.78;;;;;;;1.52;100.00;99940.91;2074939;28;20216;-72
2022/03/24 02:00:45;;;;;;;129.70;58.42;;;;;;;1.50;100.00;99942.97;2082997;28;20191;-72
2022/03/24 02:01:47;;;;;;;124.40;57.92;;;;;;;1.50;100.00;99942.97;2083305;28;20196;-72
2022/03/24 02:02:50;;;;;;;117.57;56.08;;;;;;;1.50;100.00;99937.69;2082989;28;20223;-72
2022/03/24 02:03:53;;;;;;;118.80;56.83;;;;;;;1.50;100.00;99935.06;2082560;28;20219;-72
2022/03/24 02:04:56;;;;;;;137.55;59.13;;;;;;;1.54;100.00;99938.06;2074614;28;20663;-72
2022/03/24 02:06:05;;;;;;;115.35;54.13;;;;;;;1.47;100.00;99932.84;2075341;28;20318;-72
2022/03/24 02:07:13;;;;;;;125.07;54.78;;;;;;;1.47;100.00;99932.03;2074730;28;20205;-72
2022/03/24 02:08:15;;;;;;;114.45;54.30;;;;;;;1.47;100.00;99937.31;2082750;28;20180;-72
2022/03/24 02:09:18;;;;;;;117.85;54.58;;;;;;;1.44;100.00;99938.56;2082151;28;20596;-72
2022/03/24 02:10:20;;;;;;;115.78;55.55;;;;;;;1.45;100.00;99945.41;2074937;28;20208;-72
2022/03/24 02:11:23;;;;;;;116.95;54.75;;;;;;;1.41;100.00;99944.25;2082618;28;20672;-72
2022/03/24 02:12:25;;;;;;;118.53;56.70;;;;;;;1.38;100.00;99945.47;2082520;28;20759;-71
2022/03/24 02:13:29;;;;;;;121.95;59.20;;;;;;;1.37;100.00;99948.31;2074530;28;20224;-71
2022/03/24 02:14:31;;;;;;;123.18;58.35;;;;;;;1.36;100.00;99944.88;2075251;28;20200;-71
2022/03/24 02:15:35;;;;;;;121.97;53.17;;;;;;;1.38;100.00;99949.91;2074785;28;20663;-71
2022/03/24 02:16:38;;;;;;;134.10;58.65;;;;;;;1.36;100.00;99944.06;2074891;28;20200;-72
2022/03/24 02:17:41;;;;;;;117.82;56.47;;;;;;;1.36;100.00;99936.19;2074750;28;20216;-72
2022/03/24 02:18:44;;;;;;;116.78;56.65;;;;;;;1.38;100.00;99940.19;2074606;28;20200;-72
2022/03/24 02:19:47;;;;;;;109.65;52.25;;;;;;;1.41;100.00;99945.06;2074932;28;20220;-72
2022/03/24 02:20:51;;;;;;;116.45;53.20;;;;;;;1.35;100.00;99934.56;2082018;28;20206;-71
2022/03/24 02:21:55;;;;;;;129.00;55.78;;;;;;;1.30;100.00;99937.03;2082620;28;20258;-71
2022/03/24 02:22:59;;;;;;;113.45;52.15;;;;;;;1.22;100.00;99935.50;2082747;28;20204;-72
2022/03/24 02:24:00;;;;;;;115.65;53.08;;;;;;;1.15;100.00;99934.72;2074026;28;20620;-72
2022/03/24 02:25:02;;;;;;;111.03;51.85;;;;;;;1.07;100.00;99927.91;2082586;28;20184;-72
2022/03/24 02:26:07;;;;;;;112.88;52.17;;;;;;;1.00;100.00;99937.66;2083083;28;20227;-71
2022/03/24 02:27:10;;;;;;;114.70;53.53;;;;;;;0.90;100.00;99934.69;2083142;28;20230;-72
2022/03/24 02:28:14;;;;;;;116.20;54.22;;;;;;;0.83;100.00;99926.03;2082473;28;20199;-72
2022/03/24 02:29:17;;;;;;;101.63;49.88;;;;;;;0.79;100.00;99924.84;2082529;28;20200;-71
2022/03/24 02:30:20;;;;;;;120.38;55.22;;;;;;;0.73;100.00;99926.50;2083127;28;20184;-71
2022/03/24 02:31:22;;;;;;;114.03;52.83;;;;;;;0.69;100.00;99927.91;2083068;28;20195;-72
2022/03/24 02:32:25;;;;;;;113.45;53.75;;;;;;;0.63;100.00;99922.72;2083104;28;20191;-72
2022/03/24 02:33:26;;;;;;;107.25;53.33;;;;;;;0.60;100.00;99928.34;2083035;28;20726;-71
2022/03/24 02:34:47;;;;;;;110.20;52.03;;;;;;;0.57;100.00;99921.72;2082387;28;20582;-72
2022/03/24 02:35:53;;;;;;;107.97;50.80;;;;;;;0.51;100.00;99928.59;2082419;28;20403;-71
2022/03/24 02:36:55;;;;;;;108.38;53.58;;;;;;;0.50;100.00;99932.25;2082312;28;20188;-72
2022/03/24 02:37:59;;;;;;;111.22;52.53;;;;;;;0.45;100.00;99924.19;2082443;28;20192;-71
2022/03/24 02:39:01;;;;;;;109.75;53.22;;;;;;;0.44;100.00;99932.28;2082605;28;20753;-71
2022/03/24 02:40:04;;;;;;;111.55;55.53;;;;;;;0.44;100.00;99935.72;2073952;28;20207;-71
2022/03/24 02:41:05;;;;;;;119.35;54.83;;;;;;;0.41;100.00;99938.75;2074645;28;20679;-72
2022/03/24 02:42:09;;;;;;;132.95;56.85;;;;;;;0.39;100.00;99938.16;2082532;28;20188;-72
2022/03/24 02:43:12;;;;;;;123.93;55.85;;;;;;;0.39;100.00;99940.78;2082377;28;20206;-71
2022/03/24 02:44:14;;;;;;;115.43;54.95;;;;;;;0.39;100.00;99938.16;2082380;28;20246;-71
2022/03/24 02:45:17;;;;;;;116.55;53.75;;;;;;;0.39;100.00;99940.78;2083030;28;20196;-72
2022/03/24 02:46:20;;;;;;;120.50;54.90;;;;;;;0.37;100.00;99937.56;2082590;28;20204;-72
2022/03/24 02:47:23;;;;;;;107.25;52.63;;;;;;;0.37;100.00;99936.75;2082450;28;20709;-71
2022/03/24 02:48:25;;;;;;;121.15;57.38;;;;;;;0.37;100.00;99934.94;2082993;28;20204;-72
2022/03/24 02:49:30;;;;;;;123.15;55.95;;;;;;;0.38;100.00;99938.38;2082961;28;20183;-72
2022/03/24 02:50:34;;;;;;;119.15;55.58;;;;;;;0.36;100.00;99937.78;2082944;28;20203;-72
2022/03/24 02:51:36;;;;;;;122.47;56.17;;;;;;;0.36;100.00;99935.94;2082428;28;20223;-72
2022/03/24 02:52:39;;;;;;;111.72;53.78;;;;;;;0.37;100.00;99944.63;2082890;28;20188;-72
2022/03/24 02:53:42;;;;;;;113.60;53.92;;;;;;;0.34;100.00;99950.28;2082530;28;20249;-72
2022/03/24 02:54:45;;;;;;;108.53;49.65;;;;;;;0.32;100.00;99955.72;2082191;28;20204;-71
2022/03/24 02:55:47;;;;;;;111.72;50.63;;;;;;;0.30;100.00;99954.34;2082967;28;20220;-72
2022/03/24 02:56:50;;;;;;;115.43;53.38;;;;;;;0.26;100.00;99954.75;2082274;28;20195;-71
2022/03/24 02:57:53;;;;;;;111.20;51.63;;;;;;;0.24;100.00;99954.13;2082265;28;20212;-71
2022/03/24 02:58:54;;;;;;;113.97;56.22;;;;;;;0.24;100.00;99958.59;2082208;28;20761;-71
2022/03/24 02:59:57;;;;;;;97.00;52.13;;;;;;;0.21;100.00;99956.38;2082291;28;20192;-72
2022/03/24 03:00:58;;;;;;;117.07;53.88;;;;;;;0.22;100.00;99950.13;2082384;28;20669;-72
2022/03/24 03:02:03;;;;;;;117.45;55.50;;;;;;;0.23;100.00;99956.97;2074011;28;20581;-72
2022/03/24 03:03:06;;;;;;;114.90;52.30;;;;;;;0.23;100.00;99956.97;2074971;28;20261;-73
2022/03/24 03:04:08;;;;;;;113.40;53.70;;;;;;;0.22;100.00;99953.53;2074466;28;20675;-72
2022/03/24 03:05:11;;;;;;;116.53;55.03;;;;;;;0.19;100.00;99956.59;2082127;28;20684;-72
2022/03/24 03:06:13;;;;;;;127.80;56.85;;;;;;;0.17;100.00;99966.47;2081956;28;20227;-72
2022/03/24 03:07:16;;;;;;;120.43;57.30;;;;;;;0.15;100.00;99962.44;2082076;28;20732;-72
2022/03/24 03:08:19;;;;;;;116.60;56.35;;;;;;;0.12;100.00;99949.75;2082220;28;20195;-72
2022/03/24 03:09:24;;;;;;;114.28;55.47;;;;;;;0.11;100.00;99962.06;2082804;28;20188;-72
2022/03/24 03:10:26;;;;;;;125.15;56.53;;;;;;;0.07;100.00;99957.41;2082982;28;20208;-72
2022/03/24 03:11:30;;;;;;;115.80;56.03;;;;;;;0.06;100.00;99955.81;2082123;28;20689;-72
2022/03/24 03:12:32;;;;;;;124.35;56.38;;;;;;;0.04;100.00;99961.25;2082202;28;20677;-72
2022/03/24 03:13:34;;;;;;;126.30;56.95;;;;;;;0.03;100.00;99956.22;2082797;28;20192;-72
2022/03/24 03:14:37;;;;;;;115.45;56.15;;;;;;;0.02;100.00;99965.09;2082743;28;20192;-72
2022/03/24 03:15:38;;;;;;;120.80;56.55;;;;;;;-0.01;100.00;99961.06;2082040;28;20211;-72
2022/03/24 03:16:44;;;;;;;115.78;54.60;;;;;;;-0.05;100.00;99954.63;2082148;28;20278;-72
2022/03/24 03:17:45;;;;;;;117.43;53.20;;;;;;;-0.07;100.00;99960.06;2082304;28;20223;-72
2022/03/24 03:18:48;;;;;;;131.00;54.92;;;;;;;-0.10;100.00;99965.72;2073886;28;20199;-72
2022/03/24 03:19:50;;;;;;;111.15;52.55;;;;;;;-0.13;100.00;99960.06;2073962;28;20254;-72
2022/03/24 03:20:51;;;;;;;119.22;56.03;;;;;;;-0.14;100.00;99961.09;2073623;28;20196;-72
2022/03/24 03:21:54;;;;;;;114.35;55.35;;;;;;;-0.17;100.00;99962.31;2082130;28;20624;-72
2022/03/24 03:22:56;;;;;;;126.38;53.35;;;;;;;-0.21;100.00;99958.47;2082918;28;20203;-72
2022/03/24 03:23:58;;;;;;;106.82;51.30;;;;;;;-0.21;100.00;99961.09;2082745;28;20191;-72
2022/03/24 03:25:02;;;;;;;109.93;51.38;;;;;;;-0.23;100.00;99962.31;2082011;28;20204;-72
2022/03/24 03:26:06;;;;;;;106.80;50.35;;;;;;;-0.28;100.00;99971.56;2082144;28;20636;-72
2022/03/24 03:27:09;;;;;;;103.25;49.67;;;;;;;-0.32;100.00;99966.97;2081945;28;20223;-72
2022/03/24 03:28:11;;;;;;;111.35;51.67;;;;;;;-0.35;100.00;99967.34;2082251;28;20188;-72
2022/03/24 03:29:14;;;;;;;102.85;48.88;;;;;;;-0.35;100.00;99972.59;2081862;28;20279;-72
2022/03/24 03:30:19;;;;;;;101.68;49.78;;;;;;;-0.38;100.00;99971.19;2082035;28;20249;-72
2022/03/24 03:31:21;;;;;;;99.13;48.42;;;;;;;-0.36;100.00;99968.34;2082702;28;20636;-72
2022/03/24 03:32:24;;;;;;;104.82;48.40;;;;;;;-0.36;100.00;99978.84;2082617;28;20266;-72
2022/03/24 03:33:26;;;;;;;101.80;49.53;;;;;;;-0.39;100.00;99979.25;2082626;28;20223;-72
2022/03/24 03:34:28;;;;;;;103.22;49.08;;;;;;;-0.40;100.00;99980.25;2082204;28;20202;-72
2022/03/24 03:35:30;;;;;;;98.85;47.13;;;;;;;-0.40;100.00;99983.69;2073031;28;20305;-72
2022/03/24 03:36:32;;;;;;;94.72;47.50;;;;;;;-0.41;100.00;99976.84;2081550;28;20222;-72
2022/03/24 03:37:35;;;;;;;102.43;46.85;;;;;;;-0.40;100.00;99977.66;2082471;28;20191;-72
2022/03/24 03:38:37;;;;;;;92.45;48.60;;;;;;;-0.42;100.00;99975.22;2082586;28;20245;-71
2022/03/24 03:39:40;;;;;;;91.32;45.88;;;;;;;-0.43;100.00;99973.63;2082598;28;20536;-72
2022/03/24 03:40:43;;;;;;;95.00;46.35;;;;;;;-0.41;100.00;99976.03;2082801;28;20196;-72
2022/03/24 03:41:46;;;;;;;88.30;45.47;;;;;;;-0.42;100.00;99985.72;2082533;28;20199;-72
2022/03/24 03:42:51;;;;;;;96.43;44.33;;;;;;;-0.42;100.00;99980.47;2082777;28;20635;-72
2022/03/24 03:43:53;;;;;;;91.82;43.53;;;;;;;-0.44;100.00;99979.84;2081881;28;20291;-72
2022/03/24 03:44:55;;;;;;;93.95;45.05;;;;;;;-0.43;100.00;99983.31;2082180;28;20191;-72
2022/03/24 03:45:58;;;;;;;94.20;46.55;;;;;;;-0.42;100.00;99992.78;2082216;28;20231;-72
2022/03/24 03:47:01;;;;;;;95.95;47.70;;;;;;;-0.43;100.00;99996.41;2073914;28;20208;-72
2022/03/24 03:48:05;;;;;;;100.95;47.25;;;;;;;-0.44;100.00;99989.53;2081761;28;20578;-72
2022/03/24 03:49:08;;;;;;;116.18;50.22;;;;;;;-0.44;100.00;99997.38;2081978;28;20196;-72
2022/03/24 03:50:10;;;;;;;94.63;48.70;;;;;;;-0.50;100.00;99988.53;2082742;28;20199;-72
2022/03/24 03:51:14;;;;;;;108.65;49.75;;;;;;;-0.49;100.00;99997.19;2081098;28;20717;-72
2022/03/24 03:52:16;;;;;;;109.63;50.67;;;;;;;-0.53;100.00;99991.53;2082134;28;20195;-72
2022/03/24 03:53:19;;;;;;;106.32;50.92;;;;;;;-0.57;100.00;99993.75;2081780;28;20257;-72
2022/03/24 03:54:21;;;;;;;104.63;50.20;;;;;;;-0.59;100.00;99993.16;2074005;28;20232;-72
2022/03/24 03:55:24;;;;;;;99.32;47.22;;;;;;;-0.60;100.00;99993.38;2074099;28;20627;-72
2022/03/24 03:56:28;;;;;;;93.53;47.03;;;;;;;-0.59;100.00;99995.78;2081849;28;20195;-72
2022/03/24 03:57:30;;;;;;;103.32;47.28;;;;;;;-0.60;100.00;99991.56;2082291;28;20191;-72
2022/03/24 03:58:34;;;;;;;95.72;46.72;;;;;;;-0.63;100.00;99989.31;2081940;28;20203;-72
2022/03/24 03:59:38;;;;;;;84.00;43.65;;;;;;;-0.61;100.00;99997.81;2073946;28;20201;-72
2022/03/24 04:00:56;;;;;;;98.68;47.15;;;;;;;-0.63;100.00;99989.31;2081848;28;20253;-72
2022/03/24 04:01:59;;;;;;;88.68;45.55;;;;;;;-0.64;100.00;99987.69;2081990;28;20207;-72
2022/03/24 04:03:03;;;;;;;91.75;46.42;;;;;;;-0.64;100.00;99994.75;2081810;28;20195;-72
2022/03/24 04:04:12;;;;;;;92.82;45.78;;;;;;;-0.64;100.00;99998.19;2082504;28;20192;-72
2022/03/24 04:05:14;;;;;;;96.65;48.28;;;;;;;-0.68;100.00;99999.59;2082615;28;20203;-72
2022/03/24 04:06:16;;;;;;;99.75;47.58;;;;;;;-0.69;100.00;100000.63;2081983;28;20310;-72
2022/03/24 04:07:19;;;;;;;102.80;47.33;;;;;;;-0.70;100.00;99995.53;2082396;28;20671;-72
2022/03/24 04:08:22;;;;;;;101.18;45.42;;;;;;;-0.72;100.00;99989.72;2082368;28;20183;-72
2022/03/24 04:09:24;;;;;;;90.72;45.22;;;;;;;-0.73;100.00;99994.13;2082313;28;20203;-72
2022/03/24 04:10:27;;;;;;;103.28;45.78;;;;;;;-0.76;100.00;99997.16;2082309;28;20195;-72
2022/03/24 04:11:30;;;;;;;87.53;45.78;;;;;;;-0.77;100.00;99994.75;2082319;28;20215;-73
2022/03/24 04:12:35;;;;;;;91.38;45.72;;;;;;;-0.78;100.00;99996.56;2082333;28;20188;-72
2022/03/24 04:13:38;;;;;;;92.80;45.63;;;;;;;-0.80;100.00;99995.13;2082340;28;20652;-72
2022/03/24 04:14:40;;;;;;;90.20;44.88;;;;;;;-0.81;100.00;99996.94;2082535;28;20211;-72
2022/03/24 04:15:42;;;;;;;93.45;46.65;;;;;;;-0.83;100.00;100001.59;2081965;28;20199;-72
2022/03/24 04:16:45;;;;;;;85.18;44.45;;;;;;;-0.85;100.00;100003.59;2073538;28;20246;-72
2022/03/24 04:17:46;;;;;;;86.18;44.25;;;;;;;-0.86;100.00;100004.59;2081457;28;20296;-72
2022/03/24 04:18:51;;;;;;;99.05;44.45;;;;;;;-0.89;100.00;100005.78;2081765;28;20188;-72
2022/03/24 04:19:53;;;;;;;89.22;45.55;;;;;;;-0.90;100.00;100013.84;2082285;28;20192;-73
2022/03/24 04:20:57;;;;;;;97.03;44.47;;;;;;;-0.92;100.00;100010.63;2081798;28;20640;-72
2022/03/24 04:22:01;;;;;;;88.45;44.70;;;;;;;-0.95;100.00;100006.59;2082444;28;20172;-72
2022/03/24 04:23:04;;;;;;;96.53;44.97;;;;;;;-0.94;100.00;100016.06;2082218;28;20193;-72
2022/03/24 04:24:08;;;;;;;87.40;44.72;;;;;;;-0.96;100.00;100007.56;2082286;28;20184;-72
2022/03/24 04:25:10;;;;;;;95.88;43.92;;;;;;;-0.95;100.00;100011.03;2081807;28;20207;-72
2022/03/24 04:26:12;;;;;;;88.88;46.15;;;;;;;-0.98;100.00;100012.22;2073498;28;20291;-72
2022/03/24 04:27:16;;;;;;;93.22;43.95;;;;;;;-0.94;100.00;100015.25;2073567;28;20192;-72
2022/03/24 04:28:17;;;;;;;90.72;45.13;;;;;;;-0.94;100.00;100018.69;2081681;28;20196;-72
2022/03/24 04:29:20;;;;;;;92.85;46.08;;;;;;;-0.91;100.00;100026.16;2081554;28;20601;-72
2022/03/24 04:30:21;;;;;;;85.57;44.25;;;;;;;-0.91;100.00;100020.09;2081715;28;20199;-72
2022/03/24 04:31:24;;;;;;;99.10;46.03;;;;;;;-0.94;100.00;100020.50;2082173;28;20195;-72
2022/03/24 04:32:25;;;;;;;90.93;46.35;;;;;;;-0.94;100.00;100023.94;2082176;28;20184;-72
2022/03/24 04:33:27;;;;;;;99.90;46.35;;;;;;;-0.94;100.00;100023.13;2081777;28;20207;-72
2022/03/24 04:34:30;;;;;;;86.85;44.75;;;;;;;-0.95;100.00;100026.75;2081739;28;20681;-72
2022/03/24 04:35:32;;;;;;;92.25;45.53;;;;;;;-0.95;100.00;100026.75;2082236;28;20278;-72
2022/03/24 04:36:34;;;;;;;95.10;46.00;;;;;;;-0.95;100.00;100026.75;2081432;28;20250;-73
2022/03/24 04:37:36;;;;;;;86.10;44.47;;;;;;;-0.98;100.00;100017.44;2081831;28;20666;-72
2022/03/24 04:38:40;;;;;;;95.55;45.40;;;;;;;-0.98;100.00;100019.25;2082115;28;20222;-72
2022/03/24 04:39:41;;;;;;;92.47;44.20;;;;;;;-0.99;100.00;100025.50;2081553;28;20642;-72
2022/03/24 04:40:44;;;;;;;100.10;46.83;;;;;;;-1.02;100.00;100018.88;2081602;28;20626;-72
2022/03/24 04:41:45;;;;;;;87.20;44.03;;;;;;;-1.03;100.00;100019.88;2081877;28;20260;-72
2022/03/24 04:42:52;;;;;;;102.72;46.53;;;;;;;-1.02;100.00;100021.47;2073372;28;20303;-71
2022/03/24 04:43:55;;;;;;;95.82;45.88;;;;;;;-1.05;100.00;100021.06;2074163;28;20188;-72
2022/03/24 04:44:56;;;;;;;118.20;49.53;;;;;;;-1.02;100.00;100031.16;2081704;28;20728;-71
2022/03/24 04:45:59;;;;;;;97.80;48.75;;;;;;;-1.03;100.00;100024.31;2081264;28;20228;-71
2022/03/24 04:47:00;;;;;;;95.32;47.30;;;;;;;-1.05;100.00;100021.06;2081156;28;20192;-71